Port Mouton, Canada
Current Conditions -  °F | °C
As of 6:06 PM on Friday 24 Oct 2014 (Local Time) from CYQI Reporting Station
Overcast Overcast  
Wind Chill: 57°   Ceiling: 300
Heat Index: 57°   Visibility: 7mi
Dew Point: 55°   Wind: 12mph
Humidity: 94%   Direction: 360°N
Pressure: 29.46"   Gusts: NA
Location:  43.93°N, 64.85°W
Report Text: CYQI 242106Z 36010KT 7SM OVC003 14/13 A2946 RMK ST8 SLP978 DENSITY ALT 500FT
Loading
Personal Weather Stations






























Interactive Weather Map
Tropical Storm Tracking
New forecast layout! Learn more

10-Day Weather Forecast

Advertisements
Track Severe Weather on mobile